Latest Weather Observations for Tunnack

IDT60801

Issued at 2:01 pm EST Sunday 2 August 2015 (issued every 30 minutes, with the page automatically refreshed every 10 minutes)

About weather observations | Map of weather stations | Latest weather observations for TAS | Other Formats
Station Details ID: 094195 Name: TUNNACK FIRE STATION Lat: -42.45 Lon: 147.46 Height: 461.5 m
Data from the previous 72 hours. | See also: Recent months at Tunnack
Date/Time
EST
Temp
°C
App
Temp
°C
Dew
Point
Rel
Hum
%
Delta-T
°C
Wind Press
QNH
hPa
Press
MSL
hPa
Rain
since 9 am
mm
Dir
 
Spd
km/h
Gust
km/h
Spd
kts
Gust
kts
02/02:00pm 1.7 -5.8 1.4 98 0.1 W 30 50 16 27 995.6 996.3 2.4
02/01:30pm 3.5 -5.7 1.5 87 0.8 W 39 72 21 39 993.9 994.6 0.6
02/01:24pm 4.4 -4.4 1.1 79 1.3 W 37 72 20 39 993.6 994.3 0.0
02/01:19pm 5.5 -2.3 1.4 75 1.7 W 32 54 17 29 993.6 994.3 0.0
02/01:00pm 8.2 -2.0 1.1 61 3.0 NW 44 69 24 37 993.2 993.9 0.0
02/12:30pm 9.1 -0.6 0.6 55 3.5 NNW 41 69 22 37 993.6 994.3 0.0
02/12:29pm 9.2 -0.1 0.9 56 3.5 NNW 39 65 21 35 993.6 994.3 0.0
02/12:22pm 9.1 1.3 2.7 64 2.8 NNW 33 54 18 29 993.6 994.3 0.0
02/12:00pm 6.9 -2.3 3.7 80 1.4 N 41 59 22 32 994.3 994.9 0.0
02/11:30am 7.5 -1.7 3.7 77 1.7 N 41 59 22 32 995.1 995.8 0.0
02/11:29am 7.5 -1.6 3.9 78 1.6 N 41 59 22 32 995.0 995.7 0.0
02/11:00am 6.7 -3.0 3.7 81 1.3 N 44 56 24 30 996.2 996.9 0.0
02/10:30am 6.0 -4.6 3.3 83 1.2 N 48 63 26 34 996.7 997.4 0.0
02/10:16am 5.9 -4.2 3.6 85 1.0 N 46 65 25 35 996.8 997.5 0.0
02/10:00am 5.4 -4.7 3.6 88 0.8 N 46 59 25 32 997.3 998.0 0.0
02/09:36am 4.5 -5.1 3.6 94 0.4 N 43 61 23 33 997.8 998.5 0.0
02/09:30am 4.4 -5.1 3.8 96 0.3 N 43 57 23 31 998.0 998.7 0.0
02/09:03am 3.6 -5.2 3.5 99 0.0 N 39 57 21 31 998.8 999.5 0.0
02/09:00am 3.6 -4.8 3.5 99 0.0 N 37 54 20 29 999.0 999.7 0.2
02/08:58am 3.5 -4.6 3.4 99 0.0 N 35 54 19 29 999.1 999.8 0.2
02/08:30am 2.8 -5.4 2.7 99 0.0 N 35 48 19 26 999.9 1000.7 0.2
02/08:00am 2.3 -6.4 2.2 99 0.0 N 37 50 20 27 1000.2 1001.0 0.2
02/07:30am 2.0 -6.3 1.9 99 0.0 N 35 50 19 27 1000.2 1001.0 0.2
02/07:00am 2.0 -5.8 1.9 99 0.0 N 32 44 17 24 1000.7 1001.5 0.2
02/06:30am 1.8 -6.2 1.5 98 0.1 N 33 44 18 24 1000.8 1001.6 0.2
02/06:00am 1.7 -5.8 1.1 96 0.2 NNW 30 41 16 22 1001.1 1001.8 0.2
02/05:30am 1.6 -7.7 0.9 95 0.3 NNW 39 52 21 28 1001.3 1002.0 0.2
02/05:00am 1.8 -8.3 0.3 90 0.6 NNW 43 56 23 30 1001.4 1002.1 0.2
02/04:30am 1.9 -7.1 0.1 88 0.7 NNW 37 48 20 26 1001.8 1002.6 0.2
02/04:05am 2.0 -7.3 0.4 89 0.6 NNW 39 57 21 31 1001.9 1002.7 0.2
02/04:00am 1.8 -7.6 0.0 88 0.7 NNW 39 48 21 26 1002.0 1002.8 0.2
02/03:30am 1.8 -7.6 0.0 88 0.7 NNW 39 57 21 31 1002.3 1003.1 0.2
02/03:25am 1.7 -7.3 -0.1 88 0.7 NNW 37 57 20 31 1002.3 1003.1 0.2
02/03:00am 1.7 -7.3 -0.1 88 0.7 NNW 37 54 20 29 1002.6 1003.4 0.2
02/02:30am 1.7 -6.9 -0.1 88 0.7 N 35 52 19 28 1003.1 1003.9 0.2
02/02:28am 1.7 -6.6 -0.1 88 0.7 N 33 52 18 28 1003.3 1004.0 0.2
02/02:00am 1.5 -5.5 -0.6 86 0.8 N 26 33 14 18 1003.6 1004.4 0.2
02/01:30am 1.4 -4.8 -0.5 87 0.7 N 22 28 12 15 1003.9 1004.7 0.2
02/01:00am 1.7 -3.7 -1.2 81 1.1 N 17 22 9 12 1004.5 1005.3 0.2
02/12:30am 2.4 -5.0 -1.0 78 1.3 NNW 28 35 15 19 1004.6 1005.4 0.2
02/12:00am 1.9 -4.9 -1.7 77 1.3 NNW 24 32 13 17 1004.9 1005.7 0.2
 
Date/Time
EST
Temp
°C
App
Temp
°C
Dew
Point
Rel
Hum
%
Delta-T
°C
Wind Press
QNH
hPa
Press
MSL
hPa
Rain
since 9 am
mm
Dir
 
Spd
km/h
Gust
km/h
Spd
kts
Gust
kts
01/11:30pm 2.7 -3.3 -1.8 72 1.6 NNW 20 30 11 16 1005.1 1005.9 0.2
01/11:00pm 2.8 -3.2 -1.7 72 1.7 NW 20 30 11 16 1005.3 1006.2 0.2
01/10:30pm 2.0 -3.4 -1.6 77 1.3 N 17 20 9 11 1005.6 1006.4 0.2
01/10:00pm 2.1 -3.9 -1.7 76 1.4 N 20 26 11 14 1005.8 1006.6 0.2
01/09:30pm 2.3 -3.7 -1.8 74 1.5 NNW 20 26 11 14 1006.1 1006.9 0.2
01/09:00pm 2.5 -4.0 -2.2 71 1.7 NNW 22 30 12 16 1006.3 1007.1 0.2
01/08:30pm 3.0 -3.1 -2.3 68 1.9 NNW 20 28 11 15 1006.6 1007.4 0.2
01/08:00pm 3.3 -4.3 -2.4 66 2.1 NW 28 39 15 21 1006.4 1007.2 0.2
01/07:30pm 3.7 -3.6 -2.5 64 2.2 NNW 26 37 14 20 1006.6 1007.4 0.2
01/07:00pm 3.6 -2.8 -1.7 68 2.0 NNW 22 30 12 16 1006.6 1007.4 0.2
01/06:30pm 2.8 -3.3 -2.1 70 1.8 N 20 28 11 15 1006.7 1007.5 0.2
01/06:00pm 2.9 -2.6 -2.0 70 1.8 N 17 24 9 13 1006.1 1006.9 0.2
01/05:30pm 3.1 -2.0 -1.8 70 1.8 NW 15 24 8 13 1005.3 1006.2 0.2
01/05:00pm 3.6 -3.2 -2.1 66 2.1 WNW 24 35 13 19 1004.7 1005.5 0.2
01/04:42pm 4.2 -3.4 -2.4 62 2.4 WNW 28 46 15 25 1004.6 1005.4 0.2
01/04:30pm 4.4 -4.0 -2.7 60 2.6 WNW 32 46 17 25 1004.8 1005.6 0.2
01/04:09pm 5.4 -3.2 -2.4 57 2.9 WNW 33 52 18 28 1004.5 1005.3 0.2
01/04:00pm 5.6 -3.0 -2.2 57 2.9 WNW 33 48 18 26 1004.3 1005.1 0.2
01/03:30pm 5.6 -2.3 -1.8 59 2.8 WNW 30 48 16 26 1004.2 1005.0 0.2
01/03:00pm 5.2 -2.9 0.0 69 2.1 WNW 32 52 17 28 1004.0 1004.8 0.2
01/02:35pm 4.6 -3.5 -0.6 69 2.0 WNW 32 56 17 30 1004.0 1004.8 0.2
01/02:30pm 4.7 -2.6 0.3 73 1.7 WNW 28 43 15 23 1004.1 1004.9 0.2
01/02:06pm 4.1 -3.7 -0.7 71 1.8 W 30 61 16 33 1004.0 1004.8 0.0
01/02:00pm 5.0 -2.8 -1.0 65 2.3 W 30 43 16 23 1003.8 1004.6 0.0
01/01:30pm 5.3 -2.9 -0.7 65 2.3 W 32 54 17 29 1003.0 1003.8 0.0
01/01:00pm 5.0 -3.4 -0.8 66 2.2 W 33 52 18 28 1003.1 1003.9 0.0
01/12:31pm 3.6 -4.3 0.8 82 1.1 WNW 32 54 17 29 1003.5 1004.2 0.0
01/12:30pm 3.7 -3.8 1.1 83 1.0 WNW 30 44 16 24 1003.5 1004.2 0.0
01/12:03pm 4.7 -3.7 -0.9 67 2.1 WNW 33 54 18 29 1002.9 1003.7 0.0
01/12:00pm 5.4 -2.9 -0.4 66 2.3 WNW 33 50 18 27 1002.7 1003.5 0.0
01/11:43am 4.8 -2.6 -0.4 69 2.0 W 28 54 15 29 1002.5 1003.3 0.0
01/11:30am 4.7 -2.6 -0.3 70 1.9 W 28 43 15 23 1002.7 1003.5 0.0
01/11:00am 4.8 -3.2 0.4 73 1.8 W 32 54 17 29 1002.8 1003.6 0.0
01/10:30am 4.8 -3.3 -0.6 68 2.1 W 32 59 17 32 1001.9 1002.7 0.0
01/10:10am 4.9 -2.4 0.3 72 1.8 W 28 46 15 25 1001.6 1002.3 0.0
01/10:00am 4.5 -2.8 0.1 73 1.7 W 28 44 15 24 1001.5 1002.2 0.0
01/09:33am 4.0 -3.2 0.5 78 1.4 WNW 28 46 15 25 1000.7 1001.6 0.0
01/09:30am 4.1 -2.8 0.4 77 1.5 WNW 26 41 14 22 1000.7 1001.6 0.0
01/09:00am 3.5 -3.2 1.7 88 0.7 W 26 43 14 23 1000.4 1001.3 1.2
01/08:39am 3.7 -4.3 1.4 85 0.9 W 33 70 18 38 1000.1 1001.0 1.2
01/08:30am 4.0 -3.4 1.9 86 0.9 WNW 30 50 16 27 1000.0 1000.9 1.2
01/08:21am 4.2 -2.8 1.9 85 0.9 W 28 50 15 27 999.7 1000.6 1.2
01/08:00am 3.7 -2.2 1.7 87 0.8 WNW 22 39 12 21 999.2 1000.0 1.2
01/07:30am 4.1 -1.1 3.7 97 0.2 WNW 20 28 11 15 998.5 999.4 1.2
01/07:00am 4.3 0.1 4.0 98 0.1 W 15 22 8 12 997.9 998.8 1.2
01/06:30am 4.6 -2.0 4.3 98 0.1 W 28 44 15 24 997.5 998.4 1.2
01/06:22am 4.8 -2.1 4.5 98 0.1 W 30 50 16 27 997.9 998.8 1.0
01/06:20am 4.8 -2.1 4.7 99 0.0 W 30 50 16 27 997.8 998.7 1.0
01/06:00am 5.3 1.0 5.2 99 0.0 WNW 17 30 9 16 997.3 998.1 0.6
01/05:30am 5.5 -1.2 5.4 99 0.0 N 30 41 16 22 996.9 997.7 0.0
01/05:08am 5.4 -2.7 5.3 99 0.0 N 37 56 20 30 996.8 997.6 0.0
01/05:00am 5.4 -3.8 5.3 99 0.0 N 43 56 23 30 996.8 997.6 0.0
01/04:44am 5.3 -4.1 5.2 99 0.0 N 44 65 24 35 996.7 997.5 0.0
01/04:30am 5.2 -4.6 5.1 99 0.0 N 46 63 25 34 996.8 997.6 0.0
01/04:00am 5.0 -5.4 4.4 96 0.3 N 48 69 26 37 996.9 997.7 0.0
01/03:30am 5.2 -6.0 4.2 93 0.4 N 52 74 28 40 997.3 998.1 0.0
01/03:00am 5.3 -5.1 4.0 91 0.6 N 48 69 26 37 998.1 999.0 0.0
01/02:34am 5.4 -4.6 4.2 92 0.5 N 46 65 25 35 999.2 1000.0 0.0
01/02:30am 5.3 -4.7 4.1 92 0.5 N 46 61 25 33 999.3 1000.2 0.0
01/02:01am 5.2 -5.0 3.4 88 0.8 N 46 65 25 35 1000.3 1001.2 0.0
01/02:00am 5.2 -5.3 3.4 88 0.8 N 48 65 26 35 1000.2 1001.1 0.0
01/01:37am 5.2 -3.8 2.7 84 1.1 NNW 39 57 21 31 1000.2 1001.1 0.0
01/01:30am 5.2 -4.5 2.6 83 1.1 NNW 43 57 23 31 1000.4 1001.3 0.0
01/01:00am 4.7 -5.9 3.0 89 0.7 N 48 70 26 38 1000.5 1001.4 0.0
01/12:30am 4.8 -4.9 3.9 94 0.4 N 44 65 24 35 1001.8 1002.7 0.0
01/12:02am 5.0 -2.9 4.3 95 0.3 NNW 35 57 19 31 1002.9 1003.9 0.0
01/12:00am 5.0 -2.9 4.4 96 0.3 NNW 35 48 19 26 1002.9 1003.9 0.0
 
Date/Time
EST
Temp
°C
App
Temp
°C
Dew
Point
Rel
Hum
%
Delta-T
°C
Wind Press
QNH
hPa
Press
MSL
hPa
Rain
since 9 am
mm
Dir
 
Spd
km/h
Gust
km/h
Spd
kts
Gust
kts
31/11:37pm 5.1 -3.4 5.0 99 0.0 NNW 39 57 21 31 1003.7 1004.6 0.0
31/11:30pm 5.0 -3.6 4.9 99 0.0 NNW 39 56 21 30 1003.7 1004.6 0.0
31/11:00pm 4.8 -3.0 4.7 99 0.0 NNW 35 61 19 33 1003.8 1004.7 0.0
31/10:49pm 4.7 -3.5 4.6 99 0.0 NNW 37 56 20 30 1004.0 1004.9 0.0
31/10:30pm 4.7 -3.9 4.6 99 0.0 NNW 39 50 21 27 1004.7 1005.7 0.0
31/10:22pm 4.6 -2.0 4.3 98 0.1 N 28 48 15 26 1004.3 1005.2 0.0
31/10:00pm 4.4 -4.3 4.0 97 0.2 N 39 54 21 29 1005.1 1006.1 0.0
31/09:30pm 4.2 -4.1 4.1 99 0.0 N 37 46 20 25 1006.1 1007.0 0.0
31/09:00pm 4.0 -3.1 3.7 98 0.1 N 30 43 16 23 1006.6 1007.6 0.0
31/08:30pm 4.1 -3.4 3.7 97 0.2 N 32 41 17 22 1007.3 1008.3 0.0
31/08:00pm 4.0 -2.4 3.1 94 0.4 N 26 35 14 19 1007.6 1008.6 0.0
31/07:30pm 4.2 -3.2 3.8 97 0.2 N 32 41 17 22 1008.1 1009.0 0.0
31/07:00pm 4.1 -2.7 3.1 93 0.4 N 28 37 15 20 1008.2 1009.1 0.0
31/06:30pm 4.0 -1.7 2.7 91 0.5 N 22 32 12 17 1009.2 1010.2 0.0
31/06:00pm 4.3 -2.2 2.8 90 0.6 N 26 37 14 20 1009.0 1010.0 0.0
31/05:30pm 4.6 -2.7 2.5 86 0.9 N 30 43 16 23 1009.0 1010.0 0.0
31/05:00pm 5.0 -2.8 2.0 81 1.2 N 32 41 17 22 1008.8 1009.8 0.0
31/04:30pm 5.8 -2.0 1.9 76 1.6 N 32 41 17 22 1009.0 1010.0 0.0
31/04:00pm 6.2 -1.6 1.5 72 1.9 N 32 41 17 22 1009.3 1010.3 0.0
31/03:30pm 6.3 -1.5 1.4 71 2.0 N 32 43 17 23 1009.8 1010.8 0.0
31/03:00pm 8.3 1.2 -1.0 52 3.7 NNW 26 33 14 18 1010.2 1011.2 0.0
31/02:30pm 8.4 1.9 0.1 56 3.4 NNW 24 35 13 19 1010.4 1011.4 0.0
31/02:00pm 7.0 0.9 0.7 64 2.6 NNW 22 33 12 18 1010.9 1011.9 0.0
31/01:30pm 6.6 0.3 1.5 70 2.1 N 24 35 13 19 1011.4 1012.4 0.0
31/01:00pm 5.9 0.2 0.7 69 2.1 N 20 30 11 16 1011.6 1012.6 0.0
31/12:30pm 5.5 -0.6 0.5 70 2.0 N 22 30 12 16 1012.3 1013.4 0.0
31/12:00pm 6.5 0.0 0.0 63 2.6 NW 24 37 13 20 1012.7 1013.7 0.0
31/11:30am 6.1 -0.4 0.2 66 2.4 NW 24 35 13 19 1013.0 1014.0 0.0
31/11:00am 5.7 0.0 0.5 69 2.1 NNW 20 26 11 14 1013.1 1014.1 0.0
31/10:30am 5.4 -0.7 0.6 71 1.9 NW 22 35 12 19 1013.4 1014.4 0.0
31/10:00am 4.9 -1.7 -0.3 69 2.0 NW 24 32 13 17 1013.1 1014.1 0.0
31/09:30am 4.3 -1.0 -0.7 70 1.9 NNW 17 22 9 12 1012.9 1013.9 0.0
31/09:00am 3.0 -3.0 -1.5 72 1.7 NW 20 26 11 14 1013.0 1014.0 1.6
31/08:30am 2.2 -3.8 -1.6 76 1.4 NW 20 26 11 14 1012.8 1013.8 1.6
31/08:00am 1.6 -4.2 -1.6 79 1.2 WNW 19 28 10 15 1012.5 1013.5 1.6
31/07:30am 0.6 -5.3 -2.1 82 1.0 NW 19 24 10 13 1012.1 1013.2 1.6
31/07:00am 1.1 -6.1 -1.8 81 1.0 NW 26 30 14 16 1011.7 1012.7 1.6
31/06:30am 0.8 -5.3 -2.1 81 1.1 NW 20 26 11 14 1011.4 1012.4 1.6
31/06:00am 1.0 -5.0 -1.7 82 1.0 NW 20 26 11 14 1011.1 1012.1 1.6
31/05:30am 0.8 -4.3 -2.1 81 1.1 WNW 15 19 8 10 1010.8 1011.8 1.6
31/05:00am 0.5 -4.3 -2.4 81 1.1 WNW 13 19 7 10 1010.6 1011.6 1.6
31/04:30am 0.5 -4.3 -2.2 82 1.0 WNW 13 20 7 11 1010.4 1011.4 1.6
31/04:00am 1.0 -4.8 -1.7 82 1.0 WNW 19 26 10 14 1009.8 1010.8 1.6
31/03:30am 1.2 -3.4 -0.7 87 0.7 W 13 19 7 10 1009.5 1010.5 1.6
31/03:00am 1.4 -3.8 -0.1 90 0.6 W 17 22 9 12 1009.3 1010.3 1.6
31/02:30am 1.6 -2.7 1.3 98 0.1 W 13 17 7 9 1009.2 1010.2 1.6
31/02:00am 1.2 -4.2 1.1 99 0.0 W 19 22 10 12 1008.8 1009.8 1.6
31/01:30am 1.4 -4.1 0.5 94 0.3 WSW 19 26 10 14 1008.4 1009.4 1.6
31/01:00am 2.9 -2.2 0.8 86 0.8 WSW 17 24 9 13 1007.7 1008.7 0.6
31/12:30am 2.8 -3.3 0.4 84 0.9 W 22 32 12 17 1006.7 1007.7 0.6
31/12:00am 3.2 -2.7 -0.6 76 1.4 WSW 20 33 11 18 1006.6 1007.6 0.6
 
Date/Time
EST
Temp
°C
App
Temp
°C
Dew
Point
Rel
Hum
%
Delta-T
°C
Wind Press
QNH
hPa
Press
MSL
hPa
Rain
since 9 am
mm
Dir
 
Spd
km/h
Gust
km/h
Spd
kts
Gust
kts
30/11:30pm 3.2 -3.9 -1.0 74 1.6 WSW 26 39 14 21 1005.6 1006.5 0.6
30/11:03pm 3.4 -3.9 -0.2 77 1.4 WSW 28 46 15 25 1005.2 1006.2 0.6
30/11:00pm 3.4 -3.5 -0.1 78 1.4 WSW 26 41 14 22 1005.2 1006.2 0.6
30/10:41pm 3.7 -3.5 0.4 79 1.3 WSW 28 46 15 25 1004.9 1005.9 0.6
30/10:30pm 4.1 -3.4 1.1 81 1.2 WSW 30 46 16 25 1004.7 1005.7 0.6
30/10:09pm 4.6 -2.4 2.0 83 1.1 WSW 28 48 15 26 1004.1 1005.0 0.6
30/10:00pm 4.6 -2.0 2.1 84 1.0 WSW 26 43 14 23 1003.8 1004.7 0.6
30/09:30pm 4.9 -0.9 2.3 83 1.1 W 22 35 12 19 1003.4 1004.3 0.6
30/09:00pm 5.5 -2.2 2.5 81 1.3 W 32 57 17 31 1002.1 1003.0 0.6
30/08:47pm 5.6 -3.0 2.8 82 1.2 WNW 37 59 20 32 1001.7 1002.6 0.6
30/08:30pm 5.4 -3.1 3.1 85 1.0 WNW 37 50 20 27 1001.4 1002.3 0.6
30/08:00pm 6.1 -2.6 4.3 88 0.8 WNW 39 54 21 29 1001.0 1001.8 0.6
30/07:52pm 6.1 -2.5 4.6 90 0.7 WNW 39 57 21 31 1001.1 1002.0 0.6
30/07:30pm 6.1 -1.9 5.5 96 0.3 NW 37 46 20 25 1001.2 1002.1 0.4
30/07:04pm 6.3 -2.4 4.3 87 0.9 NNW 39 57 21 31 999.2 1000.0 0.0
30/07:00pm 6.4 -2.7 4.2 86 1.0 NNW 41 57 22 31 999.1 999.9 0.0
30/06:30pm 6.4 -2.7 4.1 85 1.0 NNW 41 61 22 33 998.8 999.6 0.0
30/06:24pm 6.4 -2.3 4.2 86 1.0 NNW 39 57 21 31 999.0 999.8 0.0
30/06:00pm 6.4 -3.1 3.9 84 1.1 NNW 43 57 23 31 999.2 1000.0 0.0
30/05:40pm 6.2 -1.7 4.2 87 0.9 NNW 35 57 19 31 999.1 999.9 0.0
30/05:30pm 6.1 -1.2 4.4 89 0.8 NNW 32 48 17 26 999.4 1000.3 0.0
30/05:00pm 6.2 -0.8 4.0 86 1.0 NNW 30 48 16 26 1000.0 1000.9 0.0
30/04:40pm 6.7 0.0 3.9 82 1.2 NNW 28 46 15 25 1000.8 1001.7 0.0
30/04:30pm 6.6 -0.1 3.9 83 1.2 NNW 28 44 15 24 1001.0 1001.8 0.0
30/04:00pm 7.5 -0.9 3.6 76 1.7 NNW 37 56 20 30 1001.1 1002.0 0.0
30/03:30pm 8.1 0.7 3.8 74 1.9 NNW 32 50 17 27 1001.9 1002.8 0.0
30/03:00pm 8.8 1.1 3.6 70 2.3 NNW 33 56 18 30 1002.0 1002.9 0.0
30/02:30pm 9.5 2.2 4.3 70 2.4 NNW 32 54 17 29 1002.6 1003.5 0.0
30/02:09pm 9.0 1.0 3.8 70 2.3 NNW 35 54 19 29 1003.0 1004.0 0.0

Other Formats:

Comma delimited format used in spreadsheet applications
http://www.bom.gov.au/fwo/IDT60801/IDT60801.94960.axf

JavaScript Object Notation format (JSON) in row-major order
http://www.bom.gov.au/fwo/IDT60801/IDT60801.94960.json